createdAt,value
2018-09-05T00:00:23.211Z,100666.52
2018-09-05T00:02:51.312Z,100666.02
2018-09-05T00:05:19.398Z,100669.05
2018-09-05T00:07:47.472Z,100668.70
2018-09-05T00:10:15.615Z,100670.09
2018-09-05T00:12:43.682Z,100668.70
2018-09-05T00:15:11.769Z,100664.19
2018-09-05T00:17:39.863Z,100663.81
2018-09-05T00:20:07.924Z,100665.83
2018-09-05T00:22:36.054Z,100667.56
2018-09-05T00:25:04.128Z,100661.00
2018-09-05T00:27:32.228Z,100658.51
2018-09-05T00:30:00.307Z,100659.41
2018-09-05T00:32:28.495Z,100658.17
2018-09-05T00:34:56.606Z,100653.66
2018-09-05T00:37:24.689Z,100662.09
2018-09-05T00:39:52.805Z,100654.22
2018-09-05T00:42:20.903Z,100655.95
2018-09-05T00:44:48.962Z,100652.13
2018-09-05T00:47:17.062Z,100654.77
2018-09-05T00:49:45.144Z,100652.45
2018-09-05T00:52:13.252Z,100658.78
2018-09-05T00:54:47.839Z,100657.78
2018-09-05T00:57:15.905Z,100660.48
2018-09-05T00:59:43.992Z,100661.89
2018-09-05T01:02:12.090Z,100651.95
2018-09-05T01:04:40.146Z,100655.48
2018-09-05T01:07:20.126Z,100652.26
2018-09-05T01:09:48.228Z,100651.28
2018-09-05T01:12:16.619Z,100652.45
2018-09-05T01:14:44.727Z,100654.88
2018-09-05T01:17:12.967Z,100651.24
2018-09-05T01:19:41.182Z,100648.63
2018-09-05T01:22:09.543Z,100656.72
2018-09-05T01:24:37.863Z,100651.92
2018-09-05T01:27:06.145Z,100664.56
2018-09-05T01:29:35.495Z,100662.45
2018-09-05T01:32:03.587Z,100658.09
2018-09-05T01:34:31.649Z,100662.69
2018-09-05T01:36:59.715Z,100654.03
2018-09-05T01:39:27.786Z,100657.37
2018-09-05T01:41:55.891Z,100649.86
2018-09-05T01:44:23.962Z,100647.16
2018-09-05T01:46:52.066Z,100655.70
2018-09-05T01:49:20.142Z,100643.13
2018-09-05T01:51:48.204Z,100641.94
2018-09-05T01:54:17.012Z,100644.42
2018-09-05T01:56:45.077Z,100643.91
2018-09-05T01:59:13.151Z,100648.11
2018-09-05T02:01:41.255Z,100651.58
2018-09-05T02:04:09.326Z,100641.44
2018-09-05T02:06:37.415Z,100652.32
2018-09-05T02:09:08.611Z,100655.34
2018-09-05T02:11:36.799Z,100656.57
2018-09-05T02:14:04.875Z,100655.27
2018-09-05T02:16:32.958Z,100661.45
2018-09-05T02:19:01.020Z,100663.56
2018-09-05T02:21:29.143Z,100664.47
2018-09-05T02:23:57.227Z,100654.11
2018-09-05T02:26:25.344Z,100651.34
2018-09-05T02:28:53.430Z,100652.90
2018-09-05T02:31:21.548Z,100655.61
2018-09-05T02:33:49.648Z,100655.01
2018-09-05T02:36:17.777Z,100652.91
2018-09-05T02:38:46.022Z,100651.95
2018-09-05T02:41:14.099Z,100654.19
2018-09-05T02:43:47.565Z,100670.80
2018-09-05T02:46:15.658Z,100663.91
2018-09-05T02:48:43.784Z,100668.73
2018-09-05T02:51:11.904Z,100666.55
2018-09-05T02:53:40.005Z,100668.13
2018-09-05T02:56:08.140Z,100671.86
2018-09-05T02:58:36.243Z,100671.86
2018-09-05T03:01:04.468Z,100668.56
2018-09-05T03:03:32.595Z,100672.61
2018-09-05T03:06:00.650Z,100671.30
2018-09-05T03:08:28.731Z,100677.05
2018-09-05T03:10:56.852Z,100672.70
2018-09-05T03:13:24.990Z,100667.10
2018-09-05T03:15:53.186Z,100673.90
2018-09-05T03:18:21.258Z,100672.35
2018-09-05T03:20:49.330Z,100669.42
2018-09-05T03:23:17.415Z,100669.05
2018-09-05T03:25:45.502Z,100673.75
2018-09-05T03:28:13.599Z,100670.74
2018-09-05T03:30:41.676Z,100679.30
2018-09-05T03:33:09.828Z,100677.20
2018-09-05T03:35:37.864Z,100672.28
2018-09-05T03:38:05.929Z,100671.73
2018-09-05T03:40:33.991Z,100671.91
2018-09-05T03:43:02.107Z,100679.12
2018-09-05T03:45:30.195Z,100680.83
2018-09-05T03:47:58.268Z,100682.70
2018-09-05T03:50:26.418Z,100683.39
2018-09-05T03:52:54.503Z,100685.91
2018-09-05T03:55:22.593Z,100685.34
2018-09-05T03:57:50.655Z,100690.19
2018-09-05T04:00:18.738Z,100692.50
2018-09-05T04:02:46.823Z,100692.78
2018-09-05T04:05:14.902Z,100688.88
2018-09-05T04:07:42.988Z,100684.33
2018-09-05T04:10:11.077Z,100685.25
2018-09-05T04:12:40.171Z,100683.30
2018-09-05T04:15:08.848Z,100684.78
2018-09-05T04:17:37.015Z,100683.48
2018-09-05T04:20:05.268Z,100688.64
2018-09-05T04:22:33.364Z,100680.47
2018-09-05T04:25:01.475Z,100678.92
2018-09-05T04:27:29.568Z,100687.14
2018-09-05T04:29:57.773Z,100687.06
2018-09-05T04:32:25.783Z,100689.90
2018-09-05T04:34:53.852Z,100690.58
2018-09-05T04:37:21.928Z,100693.88
2018-09-05T04:39:50.000Z,100693.70
2018-09-05T04:42:18.119Z,100691.97
2018-09-05T04:44:46.201Z,100693.88
2018-09-05T04:47:14.281Z,100697.83
2018-09-05T04:49:42.367Z,100692.76
2018-09-05T04:52:10.435Z,100690.67
2018-09-05T04:54:38.520Z,100693.08
2018-09-05T04:57:06.586Z,100694.42
2018-09-05T04:59:35.130Z,100697.41
2018-09-05T05:02:03.222Z,100698.37
2018-09-05T05:04:31.346Z,100700.71
2018-09-05T05:06:59.403Z,100698.14
2018-09-05T05:09:27.475Z,100707.45
2018-09-05T05:11:55.549Z,100705.91
2018-09-05T05:14:23.616Z,100705.27
2018-09-05T05:16:51.763Z,100708.05
2018-09-05T05:19:19.836Z,100709.30
2018-09-05T05:21:47.915Z,100716.64
2018-09-05T05:24:16.010Z,100717.58
2018-09-05T05:26:47.038Z,100719.76
2018-09-05T05:29:15.159Z,100717.53
2018-09-05T05:31:43.256Z,100722.61
2018-09-05T05:34:11.431Z,100716.69
2018-09-05T05:36:39.512Z,100725.80
2018-09-05T05:39:09.482Z,100725.81
2018-09-05T05:41:37.544Z,100723.12
2018-09-05T05:44:05.732Z,100726.00
2018-09-05T05:46:34.013Z,100736.66
2018-09-05T05:49:02.106Z,100730.91
2018-09-05T05:51:30.301Z,100738.34
2018-09-05T05:53:58.438Z,100735.59
2018-09-05T05:56:26.544Z,100735.14
2018-09-05T05:58:54.615Z,100735.87
2018-09-05T06:01:22.693Z,100741.46
2018-09-05T06:03:50.770Z,100739.91
2018-09-05T06:06:19.032Z,100739.25
2018-09-05T06:08:47.015Z,100742.41
2018-09-05T06:11:15.626Z,100740.20
2018-09-05T06:13:43.707Z,100744.63
2018-09-05T06:16:12.870Z,100747.88
2018-09-05T06:18:41.415Z,100745.31
2018-09-05T06:21:09.550Z,100742.07
2018-09-05T06:23:37.584Z,100739.22
2018-09-05T06:26:05.850Z,100740.92
2018-09-05T06:28:33.980Z,100747.56
2018-09-05T06:31:02.380Z,100749.04
2018-09-05T06:33:30.375Z,100749.75
2018-09-05T06:35:59.034Z,100749.39
2018-09-05T06:38:27.121Z,100743.54
2018-09-05T06:40:55.221Z,100749.54
2018-09-05T06:43:23.332Z,100747.98
2018-09-05T06:45:51.666Z,100750.73
2018-09-05T06:48:19.778Z,100750.62
2018-09-05T06:50:47.853Z,100752.00
2018-09-05T06:53:16.419Z,100752.64
2018-09-05T06:55:44.764Z,100753.05
2018-09-05T06:58:12.985Z,100758.15
2018-09-05T07:00:41.098Z,100757.14
2018-09-05T07:03:09.154Z,100755.37
2018-09-05T07:05:37.251Z,100753.13
2018-09-05T07:08:05.609Z,100747.40
2018-09-05T07:10:33.755Z,100748.28
2018-09-05T07:13:01.832Z,100749.77
2018-09-05T07:15:29.914Z,100753.31
2018-09-05T07:17:57.998Z,100752.59
2018-09-05T07:20:26.077Z,100751.10
2018-09-05T07:22:54.168Z,100748.81
2018-09-05T07:25:22.253Z,100751.08
2018-09-05T07:27:50.344Z,100744.59
2018-09-05T07:30:18.603Z,100745.41
2018-09-05T07:32:46.937Z,100747.48
2018-09-05T07:35:15.109Z,100748.05
2018-09-05T07:37:43.239Z,100746.52
2018-09-05T07:40:11.319Z,100744.65
2018-09-05T07:42:39.430Z,100742.34
2018-09-05T07:45:07.557Z,100745.20
2018-09-05T07:47:35.707Z,100756.30
2018-09-05T07:50:03.897Z,100750.80
2018-09-05T07:52:32.094Z,100754.61
2018-09-05T07:55:00.150Z,100749.78
2018-09-05T07:57:28.340Z,100749.56
2018-09-05T07:59:56.349Z,100752.72
2018-09-05T08:02:24.436Z,100748.59
2018-09-05T08:04:52.677Z,100753.86
2018-09-05T08:07:20.765Z,100749.21
2018-09-05T08:09:48.855Z,100758.88
2018-09-05T08:12:16.986Z,100756.02
2018-09-05T08:14:45.076Z,100763.69
2018-09-05T08:17:13.162Z,100755.71
2018-09-05T08:19:41.255Z,100752.23
2018-09-05T08:22:09.402Z,100748.95
2018-09-05T08:24:37.544Z,100745.89
2018-09-05T08:27:05.587Z,100748.95
2018-09-05T08:29:33.697Z,100740.52
2018-09-05T08:32:01.828Z,100738.63
2018-09-05T08:34:29.927Z,100732.14
2018-09-05T08:36:58.977Z,100744.22
2018-09-05T08:39:26.703Z,100744.66
2018-09-05T08:41:54.876Z,100737.58
2018-09-05T08:44:23.191Z,100740.30
2018-09-05T08:46:51.180Z,100732.77
2018-09-05T08:49:19.239Z,100743.13
2018-09-05T08:51:47.326Z,100740.03
2018-09-05T08:54:15.428Z,100745.48
2018-09-05T08:56:43.540Z,100737.64
2018-09-05T08:59:11.615Z,100731.95
2018-09-05T09:01:39.709Z,100727.86
2018-09-05T09:04:07.791Z,100731.75
2018-09-05T09:06:35.916Z,100728.80
2018-09-05T09:09:05.843Z,100731.84
2018-09-05T09:11:34.046Z,100732.70
2018-09-05T09:14:02.050Z,100727.27
2018-09-05T09:16:30.127Z,100722.84
2018-09-05T09:18:58.239Z,100726.19
2018-09-05T09:21:26.363Z,100721.57
2018-09-05T09:23:54.444Z,100721.37
2018-09-05T09:26:22.532Z,100721.09
2018-09-05T09:28:50.635Z,100709.64
2018-09-05T09:31:18.720Z,100706.97
2018-09-05T09:33:46.796Z,100702.89
2018-09-05T09:36:14.870Z,100706.72
2018-09-05T09:38:42.992Z,100706.19
2018-09-05T09:41:11.127Z,100700.16
2018-09-05T09:43:39.207Z,100695.80
2018-09-05T09:46:07.320Z,100698.81
2018-09-05T09:48:35.391Z,100700.19
2018-09-05T09:51:03.479Z,100696.39
2018-09-05T09:53:31.605Z,100698.28
2018-09-05T09:55:59.719Z,100691.17
2018-09-05T09:58:27.821Z,100689.24
2018-09-05T10:01:01.115Z,100685.40
2018-09-05T10:03:34.541Z,100679.39
2018-09-05T10:06:07.743Z,100681.30
2018-09-05T10:08:40.995Z,100678.78
2018-09-05T10:11:16.509Z,100678.21
2018-09-05T10:13:49.983Z,100671.91
2018-09-05T10:16:23.335Z,100674.32
2018-09-05T10:18:53.060Z,100667.52
2018-09-05T10:21:21.335Z,100663.95
2018-09-05T10:23:49.471Z,100662.02
2018-09-05T10:26:17.600Z,100657.87
2018-09-05T10:28:45.700Z,100657.23
2018-09-05T10:31:13.831Z,100648.19
2018-09-05T10:33:41.954Z,100643.77
2018-09-05T10:36:10.072Z,100637.30
2018-09-05T10:38:38.177Z,100641.97
2018-09-05T10:41:06.251Z,100643.03
2018-09-05T10:43:34.339Z,100638.13
2018-09-05T10:46:02.435Z,100635.81
2018-09-05T10:48:30.544Z,100633.59
2018-09-05T10:50:58.678Z,100635.55
2018-09-05T10:53:26.780Z,100626.97
2018-09-05T10:55:54.873Z,100623.68
2018-09-05T10:58:22.980Z,100627.13
2018-09-05T11:00:51.067Z,100613.33
2018-09-05T11:03:19.145Z,100618.28
2018-09-05T11:05:47.216Z,100614.00
2018-09-05T11:08:15.297Z,100608.30
2018-09-05T11:10:43.375Z,100606.06
2018-09-05T11:13:11.447Z,100607.86
2018-09-05T11:15:39.541Z,100606.16
2018-09-05T11:18:07.627Z,100606.80
2018-09-05T11:20:35.708Z,100604.20
2018-09-05T11:23:03.867Z,100605.27
2018-09-05T11:25:31.925Z,100592.09
2018-09-05T11:28:00.029Z,100585.75
2018-09-05T11:30:28.143Z,100592.80
2018-09-05T11:32:56.251Z,100585.97
2018-09-05T11:35:24.340Z,100586.27
2018-09-05T11:37:52.431Z,100585.55
2018-09-05T11:40:20.505Z,100582.13
2018-09-05T11:42:48.606Z,100577.45
2018-09-05T11:45:16.680Z,100576.11
2018-09-05T11:47:44.767Z,100576.97
2018-09-05T11:50:12.830Z,100572.33
2018-09-05T11:52:40.927Z,100565.20
2018-09-05T11:55:09.039Z,100571.04
2018-09-05T11:57:37.116Z,100570.80
2018-09-05T12:00:05.300Z,100560.91
2018-09-05T12:02:33.367Z,100565.56
2018-09-05T12:05:01.505Z,100560.83
2018-09-05T12:07:29.532Z,100557.67
2018-09-05T12:09:57.642Z,100559.21
2018-09-05T12:12:25.744Z,100559.97
2018-09-05T12:14:53.955Z,100550.14
2018-09-05T12:17:22.064Z,100549.28
2018-09-05T12:19:50.161Z,100550.11
2018-09-05T12:22:18.246Z,100553.88
2018-09-05T12:24:46.346Z,100547.19
2018-09-05T12:27:15.014Z,100546.23
2018-09-05T12:29:43.093Z,100545.45
2018-09-05T12:32:11.201Z,100545.45
2018-09-05T12:34:39.289Z,100539.94
2018-09-05T12:37:07.423Z,100539.83
2018-09-05T12:39:35.574Z,100533.86
2018-09-05T12:42:03.640Z,100531.19
2018-09-05T12:44:31.729Z,100531.81
2018-09-05T12:46:59.844Z,100534.92
2018-09-05T12:49:27.931Z,100528.44
2018-09-05T12:51:56.010Z,100524.75
2018-09-05T12:54:24.151Z,100516.66
2018-09-05T12:56:52.223Z,100517.19
2018-09-05T12:59:20.331Z,100515.20
2018-09-05T13:01:48.399Z,100512.64
2018-09-05T13:04:16.517Z,100514.66
2018-09-05T13:06:44.600Z,100512.78
2018-09-05T13:09:13.867Z,100504.30
2018-09-05T13:11:42.131Z,100506.31
2018-09-05T13:14:10.233Z,100500.58
2018-09-05T13:16:38.484Z,100499.26
2018-09-05T13:19:06.612Z,100490.09
2018-09-05T13:21:34.739Z,100489.88
2018-09-05T13:24:02.851Z,100489.73
2018-09-05T13:26:30.995Z,100487.13
2018-09-05T13:28:59.179Z,100488.15
2018-09-05T13:31:27.341Z,100480.17
2018-09-05T13:33:55.451Z,100481.09
2018-09-05T13:36:23.530Z,100475.05
2018-09-05T13:38:51.598Z,100475.05
2018-09-05T13:41:19.739Z,100473.44
2018-09-05T13:43:47.834Z,100471.34
2018-09-05T13:46:15.992Z,100471.66
2018-09-05T13:48:44.076Z,100477.06
2018-09-05T13:51:12.160Z,100476.09
2018-09-05T13:53:40.231Z,100467.00
2018-09-05T13:56:08.339Z,100458.01
2018-09-05T13:58:36.412Z,100457.37
2018-09-05T14:01:04.504Z,100459.16
2018-09-05T14:03:32.575Z,100457.75
2018-09-05T14:06:00.673Z,100452.28
2018-09-05T14:08:28.731Z,100448.29
2018-09-05T14:10:56.803Z,100452.53
2018-09-05T14:13:24.917Z,100449.78
2018-09-05T14:15:52.956Z,100442.34
2018-09-05T14:18:21.084Z,100448.47
2018-09-05T14:20:49.201Z,100444.09
2018-09-05T14:23:17.329Z,100441.84
2018-09-05T14:25:45.471Z,100444.39
2018-09-05T14:28:13.587Z,100439.88
2018-09-05T14:30:41.724Z,100439.83
2018-09-05T14:33:09.899Z,100436.83
2018-09-05T14:35:38.004Z,100436.08
2018-09-05T14:38:06.105Z,100433.34
2018-09-05T14:40:34.225Z,100437.13
2018-09-05T14:43:02.351Z,100431.52
2018-09-05T14:45:30.525Z,100433.53
2018-09-05T14:47:58.648Z,100431.34
2018-09-05T14:50:26.791Z,100430.27
2018-09-05T14:52:54.868Z,100428.77
2018-09-05T14:55:22.952Z,100425.31
2018-09-05T14:57:51.110Z,100427.98
2018-09-05T15:00:19.232Z,100429.57
2018-09-05T15:02:47.316Z,100421.36
2018-09-05T15:05:15.426Z,100415.03
2018-09-05T15:07:47.012Z,100413.54
2018-09-05T15:10:15.108Z,100412.72
2018-09-05T15:12:43.497Z,100404.98
2018-09-05T15:15:11.771Z,100401.69
2018-09-05T15:17:39.986Z,100405.77
2018-09-05T15:20:08.765Z,100403.34
2018-09-05T15:22:36.856Z,100400.38
2018-09-05T15:25:05.150Z,100401.38
2018-09-05T15:27:33.218Z,100391.66
2018-09-05T15:30:01.323Z,100393.41
2018-09-05T15:32:29.452Z,100392.66
2018-09-05T15:34:57.604Z,100388.42
2018-09-05T15:37:25.743Z,100380.18
2018-09-05T15:39:53.902Z,100384.88
2018-09-05T15:42:22.011Z,100380.42
2018-09-05T15:44:50.195Z,100386.05
2018-09-05T15:47:18.302Z,100383.20
2018-09-05T15:49:46.477Z,100383.27
2018-09-05T15:52:14.594Z,100380.18
2018-09-05T15:54:42.762Z,100381.48
2018-09-05T15:57:10.887Z,100381.04
2018-09-05T15:59:38.987Z,100378.73
2018-09-05T16:02:07.240Z,100377.69
2018-09-05T16:04:35.392Z,100375.64
2018-09-05T16:07:03.524Z,100385.30
2018-09-05T16:09:31.664Z,100385.23
2018-09-05T16:11:59.812Z,100374.64
2018-09-05T16:14:27.953Z,100374.95
2018-09-05T16:16:56.036Z,100372.49
